Map

Track Data

SID SEASON NUMBER BASIN SUBBASIN NAME ISO_TIME NATURE LAT LON WMO_WIND WMO_PRES WMO_AGENCY TRACK_TYPE DIST2LAND LANDFALL IFLAG USA_AGENCY USA_ATCF_ID USA_LAT USA_LON USA_RECORD USA_STATUS USA_WIND USA_PRES USA_SSHS USA_R34_NE USA_R34_SE USA_R34_SW USA_R34_NW USA_R50_NE USA_R50_SE USA_R50_SW USA_R50_NW USA_R64_NE USA_R64_SE USA_R64_SW USA_R64_NW USA_POCI USA_ROCI USA_RMW USA_EYE TOKYO_LAT TOKYO_LON TOKYO_GRADE TOKYO_WIND TOKYO_PRES TOKYO_R50_DIR TOKYO_R50_LONG TOKYO_R50_SHORT TOKYO_R30_DIR TOKYO_R30_LONG TOKYO_R30_SHORT TOKYO_LAND CMA_LAT CMA_LON CMA_CAT CMA_WIND CMA_PRES HKO_LAT HKO_LON HKO_CAT HKO_WIND HKO_PRES NEWDELHI_LAT NEWDELHI_LON NEWDELHI_GRADE NEWDELHI_WIND NEWDELHI_PRES NEWDELHI_CI NEWDELHI_DP NEWDELHI_POCI REUNION_LAT REUNION_LON REUNION_TYPE REUNION_WIND REUNION_PRES REUNION_TNUM REUNION_CI REUNION_RMW REUNION_R34_NE REUNION_R34_SE REUNION_R34_SW REUNION_R34_NW REUNION_R50_NE REUNION_R50_SE REUNION_R50_SW REUNION_R50_NW REUNION_R64_NE REUNION_R64_SE REUNION_R64_SW REUNION_R64_NW BOM_LAT BOM_LON BOM_TYPE BOM_WIND BOM_PRES BOM_TNUM BOM_CI BOM_RMW BOM_R34_NE BOM_R34_SE BOM_R34_SW BOM_R34_NW BOM_R50_NE BOM_R50_SE BOM_R50_SW BOM_R50_NW BOM_R64_NE BOM_R64_SE BOM_R64_SW BOM_R64_NW BOM_ROCI BOM_POCI BOM_EYE BOM_POS_METHOD BOM_PRES_METHOD NADI_LAT NADI_LON NADI_CAT NADI_WIND NADI_PRES WELLINGTON_LAT WELLINGTON_LON WELLINGTON_WIND WELLINGTON_PRES DS824_LAT DS824_LON DS824_STAGE DS824_WIND DS824_PRES TD9636_LAT TD9636_LON TD9636_STAGE TD9636_WIND TD9636_PRES TD9635_LAT TD9635_LON TD9635_WIND TD9635_PRES TD9635_ROCI NEUMANN_LAT NEUMANN_LON NEUMANN_CLASS NEUMANN_WIND NEUMANN_PRES MLC_LAT MLC_LON MLC_CLASS MLC_WIND MLC_PRES USA_GUST BOM_GUST BOM_GUST_PER REUNION_GUST REUNION_GUST_PER USA_SEAHGT USA_SEARAD_NE USA_SEARAD_SE USA_SEARAD_SW USA_SEARAD_NW STORM_SPEED STORM_DIR
1994325S06076 1995 112 SI MM ALBERTINE 1994-11-21 06:00:00 TS -6.10000 76.3000 main 1426 1416 O___________O_ jtwc_sh SH021995 -6.10000 76.3000 20 -1 -6.10000 76.3000 TC 20 3 348
1994325S06076 1995 112 SI MM ALBERTINE 1994-11-21 09:00:00 TS -5.95500 76.2625 main 1416 1398 P___________P_ SH021995 -5.95500 76.2625 22 -1 -5.95500 76.2625 TC 22 3 343
1994325S06076 1995 112 SI MM ALBERTINE 1994-11-21 12:00:00 TS -5.80000 76.2000 main 1398 1381 O___________O_ jtwc_sh SH021995 -5.80000 76.2000 25 -1 -5.80000 76.2000 TC 25 4 333
1994325S06076 1995 112 SI MM ALBERTINE 1994-11-21 15:00:00 TS -5.63501 76.1000 main 1381 1374 P___________P_ SH021995 -5.63501 76.1000 25 -1 -5.63501 76.1000 TC 25 4 327
1994325S06076 1995 112 SI MM ALBERTINE 1994-11-21 18:00:00 TS -5.50000 76.0000 main 1374 1363 O___________O_ jtwc_sh SH021995 -5.50000 76.0000 25 -1 -5.50000 76.0000 TC 25 3 324
1994325S06076 1995 112 SI MM ALBERTINE 1994-11-21 21:00:00 TS -5.42749 75.9500 main 1363 1363 P___________P_ SH021995 -5.42749 75.9500 25 -1 -5.42749 75.9500 TC 25 1 317
1994325S06076 1995 112 SI MM ALBERTINE 1994-11-22 00:00:00 TS -5.40000 75.9000 main 1367 1367 O___________O_ jtwc_sh SH021995 -5.40000 75.9000 25 -1 -5.40000 75.9000 TC 25 2 281
1994325S06076 1995 112 SI MM ALBERTINE 1994-11-22 03:00:00 TS -5.40000 75.8000 main 1371 1371 P___________P_ SH021995 -5.40000 75.8000 25 -1 -5.40000 75.8000 TC 25 2 270
1994325S06076 1995 112 SI MM ALBERTINE 1994-11-22 06:00:00 TS -5.40000 75.7000 main 1375 1375 O___________O_ jtwc_sh SH021995 -5.40000 75.7000 25 -1 -5.40000 75.7000 TC 25 2 288
1994325S06076 1995 112 SI MM ALBERTINE 1994-11-22 09:00:00 TS -5.35000 75.6500 main 1365 1369 P___________P_ SH021995 -5.35000 75.6500 25 -1 -5.35000 75.6500 TC 25 1 317
1994325S06076 1995 112 SI MM ALBERTINE 1994-11-22 12:00:00 TS -5.30000 75.6000 main 1369 1369 O___________O_ jtwc_sh SH021995 -5.30000 75.6000 25 -1 -5.30000 75.6000 TC 25 2 294
1994325S06076 1995 112 SI MM ALBERTINE 1994-11-22 15:00:00 TS -5.28500 75.5075 main 1374 1374 P___________P_ SH021995 -5.28500 75.5075 25 -1 -5.28500 75.5075 TC 25 2 270
1994325S06076 1995 112 SI MM ALBERTINE 1994-11-22 18:00:00 TS -5.30000 75.4000 main 1378 1378 O___________O_ jtwc_sh SH021995 -5.30000 75.4000 25 -1 -5.30000 75.4000 TC 25 2 256
1994325S06076 1995 112 SI MM ALBERTINE 1994-11-22 21:00:00 TS -5.33500 75.3000 main 1382 1382 P___________P_ SH021995 -5.33500 75.3000 27 -1 -5.33500 75.3000 TC 27 2 243
1994325S06076 1995 112 SI MM ALBERTINE 1994-11-23 00:00:00 TS -5.40000 75.2000 main 1397 1397 O___________O_ jtwc_sh SH021995 -5.40000 75.2000 30 -1 -5.40000 75.2000 TC 30 3 236
1994325S06076 1995 112 SI MM ALBERTINE 1994-11-23 03:00:00 TS -5.48500 75.0775 main 1412 1412 P___________P_ SH021995 -5.48500 75.0775 30 -1 -5.48500 75.0775 TC 30 3 225
1994325S06076 1995 112 SI MM ALBERTINE 1994-11-23 06:00:00 TS -5.60000 75.0000 main 1427 1427 O___________O_ jtwc_sh SH021995 -5.60000 75.0000 30 -1 -5.60000 75.0000 TC 30 3 192
1994325S06076 1995 112 SI MM ALBERTINE 1994-11-23 09:00:00 TS -5.75000 75.0275 main 1437 1437 P___________P_ SH021995 -5.75000 75.0275 32 -1 -5.75000 75.0275 TC 32 3 163
1994325S06076 1995 112 SI MM ALBERTINE 1994-11-23 12:00:00 TS -5.90000 75.1000 main 1453 1453 O___________O_ jtwc_sh SH021995 -5.90000 75.1000 35 0 -5.90000 75.1000 TC 35 3 156
1994325S06076 1995 112 SI MM ALBERTINE 1994-11-23 15:00:00 TS -6.00750 75.1500 main 1459 1459 P___________P_ SH021995 -6.00750 75.1500 35 0 -6.00750 75.1500 TC 35 3 143
1994325S06076 1995 112 SI MM ALBERTINE 1994-11-23 18:00:00 TS -6.15556 75.2889 20 1002 reunion main 1475 1471 O____O______O_ jtwc_sh SH021995 -6.10000 75.2000 35 0 -6.60000 76.0000 2 20 1002 1.50000 1.50000 -6.10000 75.2000 TC 35 4 141
1994325S06076 1995 112 SI MM ALBERTINE 1994-11-23 21:00:00 TS -6.33300 75.4150 main 1481 1481 P____P______P_ SH021995 -6.20000 75.2500 35 0 -6.86501 76.0750 2 22 1001 -6.20000 75.2500 TC 35 4 148
1994325S06076 1995 112 SI MM ALBERTINE 1994-11-24 00:00:00 TS -6.51818 75.5182 25 1000 reunion main 1498 1498 O____O______O_ jtwc_sh SH021995 -6.30000 75.3000 35 0 -7.10000 76.1000 2 25 1000 2.00000 2.00000 -6.30000 75.3000 TC 35 4 154
1994325S06076 1995 112 SI MM ALBERTINE 1994-11-24 03:00:00 TS -6.68333 75.5892 main 1515 1515 P____P______P_ SH021995 -6.38500 75.3650 35 0 -7.27999 76.0375 2 25 1000 -6.38500 75.3650 TC 35 3 171
1994325S06076 1995 112 SI MM ALBERTINE 1994-11-24 06:00:00 TS -6.80000 75.5667 25 1000 reunion main 1526 1526 O____O______O_ jtwc_sh SH021995 -6.50000 75.4000 35 0 -7.40000 75.9000 2 25 1000 2.00000 2.00000 -6.50000 75.4000 TC 35 3 201
1994325S06076 1995 112 SI MM ALBERTINE 1994-11-24 09:00:00 TS -6.94750 75.4892 main 1540 1540 P____P______P_ SH021995 -6.68500 75.3725 35 0 -7.47250 75.7225 2 26 998 -6.68500 75.3725 TC 35 4 213
1994325S06076 1995 112 SI MM ALBERTINE 1994-11-24 12:00:00 TS -7.10000 75.3667 28 997 reunion main 1565 1565 O____O______O_ jtwc_sh SH021995 -6.90000 75.3000 35 0 -7.50000 75.5000 2 28 997 2.50000 2.50000 -6.90000 75.3000 TC 35 4 222
1994325S06076 1995 112 SI MM ALBERTINE 1994-11-24 15:00:00 TS -7.23334 75.2242 main 1583 1583 P____P______P_ SH021995 -7.10000 75.2150 37 0 -7.50002 75.2425 2 29 996 -7.10000 75.2150 TC 37 4 228
1994325S06076 1995 112 SI MM ALBERTINE 1994-11-24 18:00:00 TS -7.36667 75.0667 30 995 reunion main 1608 1608 O____O______O_ jtwc_sh SH021995 -7.30000 75.1000 40 0 -7.50000 75.0000 2 30 995 2.50000 2.50000 -7.30000 75.1000 TC 40 4 228
1994325S06076 1995 112 SI MM ALBERTINE 1994-11-24 21:00:00 TS -7.50665 74.9241 main 1627 1627 P____P______P_ SH021995 -7.49999 74.9650 42 0 -7.51997 74.8425 2 32 993 -7.49999 74.9650 TC 42 4 225
1994325S06076 1995 112 SI MM ALBERTINE 1994-11-25 00:00:00 TS -7.66667 74.7667 35 992 reunion main 1652 1652 O____O______O_ jtwc_sh SH021995 -7.70000 74.8000 45 0 -7.60000 74.7000 3 35 992 3.00000 3.00000 -7.70000 74.8000 TC 45 5 224
1994325S06076 1995 112 SI MM ALBERTINE 1994-11-25 03:00:00 TS -7.86416 74.5792 main 1681 1681 P____P______P_ SH021995 -7.90749 74.6150 47 0 -7.77750 74.5075 3 37 990 -7.90749 74.6150 TC 47 6 225
1994325S06076 1995 112 SI MM ALBERTINE 1994-11-25 06:00:00 TS -8.06667 74.3667 40 988 reunion main 1710 1710 O____O______O_ jtwc_sh SH021995 -8.10000 74.4000 50 0 -8.00000 74.3000 3 40 988 3.00000 3.00000 -8.10000 74.4000 TC 50 6 230
1994325S06076 1995 112 SI MM ALBERTINE 1994-11-25 09:00:00 TS -8.23834 74.1308 main 1733 1733 P____P______P_ SH021995 -8.25751 74.1500 52 0 -8.20000 74.0925 3 42 986 -8.25751 74.1500 TC 52 6 234
1994325S06076 1995 112 SI MM ALBERTINE 1994-11-25 12:00:00 TS -8.40000 73.9000 45 985 reunion main 1763 1763 O____O______O_ jtwc_sh SH021995 -8.40000 73.9000 55 0 -8.40000 73.9000 3 45 985 3.50000 3.50000 -8.40000 73.9000 TC 55 5 232
1994325S06076 1995 112 SI MM ALBERTINE 1994-11-25 15:00:00 TS -8.57166 73.6967 main 1792 1792 P____P______P_ SH021995 -8.54999 73.6850 60 0 -8.61500 73.7200 3 46 982 -8.54999 73.6850 TC 60 5 227
1994325S06076 1995 112 SI MM ALBERTINE 1994-11-25 18:00:00 TS -8.73333 73.5333 48 980 reunion main 1811 1811 O____O______O_ jtwc_sh SH021995 -8.70000 73.5000 65 1 -8.80000 73.6000 3 48 980 3.50000 3.50000 -8.70000 73.5000 TC 65 4 222
1994325S06076 1995 112 SI MM ALBERTINE 1994-11-25 21:00:00 TS -8.87165 73.4258 main 1836 1836 P____P______P_ SH021995 -8.84998 73.3425 70 1 -8.91499 73.5925 3 51 977 -8.84998 73.3425 TC 70 3 216
1994325S06076 1995 112 SI MM ALBERTINE 1994-11-26 00:00:00 TS -9.00000 73.3333 55 975 reunion main 1851 1851 O____O______O_ jtwc_sh SH021995 -9.00000 73.2000 75 1 -9.00000 73.6000 3 55 975 4.00000 4.00000 -9.00000 73.2000 TC 75 3 220
1994325S06076 1995 112 SI MM ALBERTINE 1994-11-26 03:00:00 TS -9.12833 73.2050 main 1866 1866 P____P______P_ SH021995 -9.14249 73.0500 80 1 -9.10001 73.5150 3 57 972 -9.14249 73.0500 TC 80 4 224
1994325S06076 1995 112 SI MM ALBERTINE 1994-11-26 06:00:00 TS -9.26667 73.0667 60 970 reunion main 1891 1891 O____O______O_ jtwc_sh SH021995 -9.30000 72.9000 85 2 -9.20000 73.4000 3 60 970 4.50000 4.50000 -9.30000 72.9000 TC 85 4 221
1994325S06076 1995 112 SI MM ALBERTINE 1994-11-26 09:00:00 TS -9.42331 72.9458 main 1910 1910 P____P______P_ SH021995 -9.49248 72.7575 90 2 -9.28497 73.3224 3 64 965 -9.49248 72.7575 TC 90 4 218
1994325S06076 1995 112 SI MM ALBERTINE 1994-11-26 12:00:00 TS -9.60000 72.8000 68 960 reunion main 1935 1935 O____O______O_ jtwc_sh SH021995 -9.70000 72.6000 95 2 -9.40000 73.2000 4 68 960 5.00000 5.00000 -9.70000 72.6000 TC 95 5 223
1994325S06076 1995 112 SI MM ALBERTINE 1994-11-26 15:00:00 TS -9.79000 72.5983 main 1965 1939 P____P______P_ SH021995 -9.90000 72.4075 97 3 -9.57000 72.9800 4 68 960 -9.90000 72.4075 TC 97 6 227
1994325S06076 1995 112 SI MM ALBERTINE 1994-11-26 18:00:00 TS -10.0000 72.3667 68 960 reunion main 1939 1900 O____O______O_ jtwc_sh SH021995 -10.1000 72.2000 100 3 -9.80000 72.7000 4 68 960 5.00000 5.00000 -10.1000 72.2000 TC 100 6 227
1994325S06076 1995 112 SI MM ALBERTINE 1994-11-26 21:00:00 TS -10.2208 72.1333 main 1900 1862 P____P______P_ SH021995 -10.2850 71.9999 105 3 -10.0925 72.4000 4 70 957 -10.2850 71.9999 TC 105 7 225
1994325S06076 1995 112 SI MM ALBERTINE 1994-11-27 00:00:00 TS -10.4667 71.9000 72 955 reunion main 1862 1831 O____O______O_ jtwc_sh SH021995 -10.5000 71.8000 110 3 -10.4000 72.1000 4 72 955 5.00000 5.00000 -10.5000 71.8000 TC 110 7 220
1994325S06076 1995 112 SI MM ALBERTINE 1994-11-27 03:00:00 TS -10.7400 71.6883 main 1831 1793 P____P______P_ SH021995 -10.7850 71.6075 112 3 -10.6499 71.8499 4 73 952 -10.7850 71.6075 TC 112 7 217
1994325S06076 1995 112 SI MM ALBERTINE 1994-11-27 06:00:00 TS -11.0333 71.4667 75 950 reunion main 1793 1747 O____O______O_ jtwc_sh SH021995 -11.1000 71.4000 115 4 -10.9000 71.6000 4 75 950 5.00000 5.00000 -11.1000 71.4000 TC 115 8 218
1994325S06076 1995 112 SI MM ALBERTINE 1994-11-27 09:00:00 TS -11.3258 71.2174 main 1747 1710 P____P______P_ SH021995 -11.4000 71.1724 115 4 -11.1775 71.3074 4 77 947 -11.4000 71.1724 TC 115 8 221
1994325S06076 1995 112 SI MM ALBERTINE 1994-11-27 12:00:00 TS -11.6333 70.9333 80 945 reunion main 1701 1655 O____O______O_ jtwc_sh SH021995 -11.7000 70.9000 115 4 -11.5000 71.0000 4 80 945 5.50000 5.50000 -11.7000 70.9000 TC 115 9 223
1994325S06076 1995 112 SI MM ALBERTINE 1994-11-27 15:00:00 TS -11.9566 70.6149 main 1648 1602 P____P______P_ SH021995 -11.9925 70.5649 115 4 -11.8849 70.7149 4 80 945 -11.9925 70.5649 TC 115 9 224
1994325S06076 1995 112 SI MM ALBERTINE 1994-11-27 18:00:00 TS -12.3000 70.2667 80 945 reunion main 1602 1548 O____O______O_ jtwc_sh SH021995 -12.3000 70.2000 115 4 -12.3000 70.4000 4 80 945 5.50000 5.50000 -12.3000 70.2000 TC 115 10 224
1994325S06076 1995 112 SI MM ALBERTINE 1994-11-27 21:00:00 TS -12.6641 69.9074 main 1541 1496 P____P______P_ SH021995 -12.6424 69.8574 115 4 -12.7075 70.0075 4 82 942 -12.6424 69.8574 TC 115 10 224
1994325S06076 1995 112 SI MM ALBERTINE 1994-11-28 00:00:00 TS -13.0333 69.5333 85 940 reunion main 1486 1435 O____O______O_ jtwc_sh SH021995 -13.0000 69.5000 115 4 -13.1000 69.6000 4 85 940 5.50000 5.50000 -13.0000 69.5000 TC 115 10 225
1994325S06076 1995 112 SI MM ALBERTINE 1994-11-28 03:00:00 TS -13.3883 69.1549 main 1435 1380 P____P______P_ SH021995 -13.3500 69.1074 112 3 -13.4649 69.2498 4 85 940 -13.3500 69.1074 TC 112 10 227
1994325S06076 1995 112 SI MM ALBERTINE 1994-11-28 06:00:00 TS -13.7333 68.7667 85 940 reunion main 1380 1320 O____O______O_ jtwc_sh SH021995 -13.7000 68.7000 110 3 -13.8000 68.9000 4 85 940 5.50000 5.50000 -13.7000 68.7000 TC 110 10 228
1994325S06076 1995 112 SI MM ALBERTINE 1994-11-28 09:00:00 TS -14.0691 68.3715 main 1320 1265 P____P______P_ SH021995 -14.0499 68.2999 110 3 -14.1074 68.5149 4 87 935 -14.0499 68.2999 TC 110 10 229
1994325S06076 1995 112 SI MM ALBERTINE 1994-11-28 12:00:00 TS -14.4000 67.9667 90 930 reunion main 1265 1211 O____O______O_ jtwc_sh SH021995 -14.4000 67.9000 110 3 -14.4000 68.1000 4 90 930 6.00000 6.00000 -14.4000 67.9000 TC 110 10 230
1994325S06076 1995 112 SI MM ALBERTINE 1994-11-28 15:00:00 TS -14.7332 67.5574 main 1211 1157 P____P______P_ SH021995 -14.7499 67.5073 107 3 -14.7000 67.6574 4 92 927 -14.7499 67.5073 TC 107 10 230
1994325S06076 1995 112 SI MM ALBERTINE 1994-11-28 18:00:00 TS -15.0667 67.1333 95 925 reunion main 1142 1088 O____O______O_ jtwc_sh SH021995 -15.1000 67.1000 105 3 -15.0000 67.2000 4 95 925 6.00000 6.00000 -15.1000 67.1000 TC 105 11 232
1994325S06076 1995 112 SI MM ALBERTINE 1994-11-28 21:00:00 TS -15.3974 66.6882 main 1088 1034 P____P______P_ SH021995 -15.4500 66.6574 105 3 -15.2924 66.7498 4 95 925 -15.4500 66.6574 TC 105 11 232
1994325S06076 1995 112 SI MM ALBERTINE 1994-11-29 00:00:00 TS -15.7333 66.2333 95 925 reunion main 1025 965 O____O______O_ jtwc_sh SH021995 -15.8000 66.2000 105 3 -15.6000 66.3000 4 95 925 5.50000 6.00000 -15.8000 66.2000 TC 105 11 232
1994325S06076 1995 112 SI MM ALBERTINE 1994-11-29 03:00:00 TS -16.0808 65.7782 main 965 912 P____P______P_ SH021995 -16.1499 65.7498 102 3 -15.9425 65.8350 4 92 927 -16.1499 65.7498 TC 102 11 231
1994325S06076 1995 112 SI MM ALBERTINE 1994-11-29 06:00:00 TS -16.4333 65.3333 90 930 reunion main 902 844 O____O______O_ jtwc_sh SH021995 -16.5000 65.3000 100 3 -16.3000 65.4000 4 90 930 5.00000 6.00000 -16.5000 65.3000 TC 100 11 230
1994325S06076 1995 112 SI MM ALBERTINE 1994-11-29 09:00:00 TS -16.7807 64.9090 main 844 791 P____P______P_ SH021995 -16.8499 64.8424 100 3 -16.6423 65.0422 4 85 937 -16.8499 64.8424 TC 100 11 229
1994325S06076 1995 112 SI MM ALBERTINE 1994-11-29 12:00:00 TS -17.1333 64.5000 80 945 reunion main 791 732 O____O______O_ jtwc_sh SH021995 -17.2000 64.4000 100 3 -17.0000 64.7000 4 80 945 4.50000 5.50000 -17.2000 64.4000 TC 100 11 228
1994325S06076 1995 112 SI MM ALBERTINE 1994-11-29 15:00:00 TS -17.4924 64.0948 main 732 680 P____P______P_ SH021995 -17.5499 63.9849 95 2 -17.3774 64.3147 4 76 950 -17.5499 63.9849 TC 95 11 226
1994325S06076 1995 112 SI MM ALBERTINE 1994-11-29 18:00:00 TS -17.8667 63.7000 72 955 reunion main 675 623 O____O______O_ jtwc_sh SH021995 -17.9000 63.6000 90 2 -17.8000 63.9000 4 72 955 4.00000 5.00000 -17.9000 63.6000 TC 90 11 225
1994325S06076 1995 112 SI MM ALBERTINE 1994-11-29 21:00:00 TS -18.2516 63.3040 main 618 577 P____P______P_ SH021995 -18.2350 63.2273 85 2 -18.2850 63.4574 4 68 960 -18.2350 63.2273 TC 85 11 222
1994325S06076 1995 112 SI MM ALBERTINE 1994-11-30 00:00:00 TS -18.6667 62.9333 65 965 reunion main 563 520 O____O______O_ jtwc_sh SH021995 -18.6000 62.9000 80 1 -18.8000 63.0000 4 65 965 3.50000 4.50000 -18.6000 62.9000 TC 80 11 217
1994325S06076 1995 112 SI MM ALBERTINE 1994-11-30 03:00:00 TS -19.1182 62.6039 main 520 476 P____P______P_ SH021995 -19.0349 62.6348 75 1 -19.2849 62.5422 4 62 967 -19.0349 62.6348 TC 75 11 213
1994325S06076 1995 112 SI MM ALBERTINE 1994-11-30 06:00:00 TS -19.6000 62.3000 60 970 reunion main 476 438 O____O______O_ jtwc_sh SH021995 -19.5000 62.4000 70 1 -19.8000 62.1000 3 60 970 3.00000 4.50000 -19.5000 62.4000 TC 70 11 211
1994325S06076 1995 112 SI MM ALBERTINE 1994-11-30 09:00:00 TS -20.1025 61.9875 main 438 407 P____P______P_ SH021995 -19.9500 62.1499 65 1 -20.4075 61.6627 3 56 972 -19.9500 62.1499 TC 65 12 209
1994325S06076 1995 112 SI MM ALBERTINE 1994-11-30 12:00:00 TS -20.6000 61.7000 52 975 reunion main 407 390 O____O______O_ jtwc_sh SH021995 -20.4000 61.9000 60 0 -21.0000 61.3000 3 52 975 3.00000 4.00000 -20.4000 61.9000 TC 60 11 208
1994325S06076 1995 112 SI MM ALBERTINE 1994-11-30 15:00:00 TS -21.0550 61.4440 main 384 377 P____P______P_ SH021995 -20.8500 61.6424 55 0 -21.4649 61.0472 3 48 980 -20.8500 61.6424 TC 55 10 206
1994325S06076 1995 112 SI MM ALBERTINE 1994-11-30 18:00:00 TS -21.5000 61.2333 45 985 reunion main 377 376 O____O______O_ jtwc_sh SH021995 -21.3000 61.4000 50 0 -21.9000 60.9000 3 45 985 3.00000 3.50000 -21.3000 61.4000 TC 50 10 201
1994325S06076 1995 112 SI MM ALBERTINE 1994-11-30 21:00:00 TS -21.9716 61.0657 main 390 380 P____P______P_ SH021995 -21.7575 61.1849 47 0 -22.4000 60.8273 3 42 986 -21.7575 61.1849 TC 47 10 196
1994325S06076 1995 112 SI MM ALBERTINE 1994-12-01 00:00:00 TS -22.4333 60.9333 40 988 reunion main 393 393 O____O______O_ jtwc_sh SH021995 -22.2000 61.0000 45 0 -22.9000 60.8000 3 40 988 2.50000 3.00000 -22.2000 61.0000 TC 45 9 195
1994325S06076 1995 112 SI MM ALBERTINE 1994-12-01 03:00:00 TS -22.8700 60.7967 main 417 417 P____P______P_ SH021995 -22.6150 60.8275 42 0 -23.3800 60.7351 3 37 990 -22.6150 60.8275 TC 42 9 195
1994325S06076 1995 112 SI MM ALBERTINE 1994-12-01 06:00:00 TS -23.2667 60.7000 35 992 reunion main 440 440 O____O______O_ jtwc_sh SH021995 -23.0000 60.7000 40 0 -23.8000 60.7000 3 35 992 2.50000 3.00000 -23.0000 60.7000 TC 40 8 190
1994325S06076 1995 112 SI MM ALBERTINE 1994-12-01 09:00:00 TS -23.6175 60.6558 main 464 464 P____P______P_ SH021995 -23.3725 60.6199 37 0 -24.1075 60.7275 3 35 992 -23.3725 60.6199 TC 37 7 184
1994325S06076 1995 112 SI MM ALBERTINE 1994-12-01 12:00:00 TS -23.9333 60.6667 35 992 reunion main 489 489 O____O______O_ jtwc_sh SH021995 -23.7000 60.6000 35 0 -24.4000 60.8000 3 35 992 2.50000 3.00000 -23.7000 60.6000 TC 35 6 175
1994325S06076 1995 112 SI MM ALBERTINE 1994-12-01 15:00:00 TS -24.2358 60.7183 main 515 515 P____P______P_ SH021995 -23.9650 60.6349 32 -1 -24.7775 60.8851 3 32 993 -23.9650 60.6349 TC 32 6 169
1994325S06076 1995 112 SI MM ALBERTINE 1994-12-01 18:00:00 TS -24.5333 60.8000 30 995 reunion main 548 548 O____O______O_ jtwc_sh SH021995 -24.2000 60.7000 30 -1 -25.2000 61.0000 2 30 995 2.50000 2.50000 -24.2000 60.7000 TC 30 6 167
1994325S06076 1995 112 SI MM ALBERTINE 1994-12-01 21:00:00 TS -24.8475 60.8734 main 582 582 P____P______P_ SH021995 -24.4500 60.7426 27 -1 -25.6425 61.1351 2 30 995 -24.4500 60.7426 TC 27 8 166
1994325S06076 1995 112 SI MM ALBERTINE 1994-12-02 00:00:00 TS -25.2600 61.0000 30 995 reunion main 633 633 O____O______O_ jtwc_sh SH021995 -24.7000 60.8000 25 -1 -26.1000 61.3000 2 30 995 2.00000 2.50000 -24.7000 60.8000 TC 25 10 162
1994325S06076 1995 112 SI MM ALBERTINE 1994-12-02 03:00:00 TS -25.7537 61.1875 main 691 691 P____P______P_ SH021995 -24.9500 60.8899 25 -1 -26.5575 61.4851 2 30 995 -24.9500 60.8899 TC 25 12 160
1994325S06076 1995 112 SI MM ALBERTINE 1994-12-02 06:00:00 TS -26.4000 61.4667 30 995 reunion main 764 764 O____O______O_ jtwc_sh SH021995 -25.2000 61.0000 25 -1 -27.0000 61.7000 2 30 995 2.00000 2.50000 -25.2000 61.0000 TC 25 17 158
1994325S06076 1995 112 SI MM ALBERTINE 1994-12-02 09:00:00 TS -27.3697 61.8986 main 881 881 _____P________ SH021995 -1 -27.3697 61.8986 2 27 997 TC 16 155
1994325S06076 1995 112 SI MM ALBERTINE 1994-12-02 12:00:00 TS -27.8000 62.2000 25 1000 reunion main 934 934 _____O________ -1 -27.8000 62.2000 2 25 1000 2.00000 2.00000 12 146
1994325S06076 1995 112 SI MM ALBERTINE 1994-12-02 15:00:00 TS -28.3825 62.6831 main 1017 1017 _____P________ -1 -28.3825 62.6831 2 25 1000 16 143
1994325S06076 1995 112 SI MM ALBERTINE 1994-12-02 18:00:00 TS -29.1000 63.3000 25 1000 reunion main 1114 1114 _____O________ -1 -29.1000 63.3000 2 25 1000 1.50000 2.00000 19 144
1994325S06076 1995 112 SI MM ALBERTINE 1994-12-02 21:00:00 TS -29.9232 63.9823 main 1225 1225 _____P________ -1 -29.9232 63.9823 2 21 144
1994325S06076 1995 112 SI MM ALBERTINE 1994-12-03 00:00:00 ET -30.8000 64.7000 reunion main 1346 _____O________ -1 -30.8000 64.7000 5 9.90000 22 145

About IBTrACS Database

This database is a web-friendly format of International Best Track Archive for Climate Stewardship (IBTrACS), a global best track data archive curated by NOAA dating back to 1842.

Updated: 2021-10-21